Aviation Digital Data Service (ADDS)

Output produced by METARs form (0938 UTC 23 July 2019)
found at http://www.aviationweather.gov/metar/data/
 
Forecast for: KMHT (MANCHESTER , NH, US)
Text: KMHT 230857Z 2309/2406 02006KT 4SM -RA BR OVC009
Forecast period: 0900 to 1600 UTC 23 July 2019
Forecast type: FROM: standard forecast or significant change
Winds: from the NNE (20 degrees) at 7 MPH (6 knots; 3.1 m/s)
Visibility: 4 miles (6 km)
Ceiling: 900 feet AGL
Clouds: overcast cloud deck at 900 feet AGL
Weather: -RA BR  (light rain, mist)
Text: FM231600 VRB04KT P6SM -SHRA OVC025
Forecast period: 1600 to 2000 UTC 23 July 2019
Forecast type: FROM: standard forecast or significant change
Winds: variable direction winds at 5 MPH (4 knots; 2.1 m/s)
Visibility: 6 or more miles 10+ km)
Ceiling: 2500 feet AGL
Clouds: overcast cloud deck at 2500 feet AGL
Weather: -SHRA  (light rain showers)
Text: FM232000 14004KT P6SM BKN040
Forecast period: 2000 UTC 23 July 2019 to 0600 UTC 24 July 2019
Forecast type: FROM: standard forecast or significant change
Winds: from the SE (140 degrees) at 5 MPH (4 knots; 2.1 m/s)
Visibility: 6 or more miles 10+ km)
Ceiling: 4000 feet AGL
Clouds: broken clouds at 4000 feet AGL
Weather: no significant weather forecast for this period